Forest Dale, Vermont
Current Conditions -  °F | °C
As of 11:55 AM on Friday 24 Oct 2014 (Local Time) from K6B0 Reporting Station
Overcast Overcast  
Wind Chill: 39°   Ceiling: 1400
Heat Index: 44°   Visibility: 10mi
Dew Point: 44°   Wind: 9mph
Humidity: 100%   Direction: 340°NNW
Pressure: 29.84"   Gusts: 17mph
Location:  43.83°N, 73.05°W
Report Text: K6B0 241555Z AUTO 34008G15KT 310V010 10SM OVC014 07/07 A2984 RMK AO2 T00650065
Loading
Personal Weather Stations






























Interactive Weather Map New forecast layout! Learn more

10-Day Weather Forecast

Advertisements
Track Severe Weather on mobile